createdAt,value
2023-02-03T00:00:01.641Z,18.22
2023-02-03T00:02:41.821Z,18.42
2023-02-03T00:05:10.802Z,18.40
2023-02-03T00:07:40.560Z,18.07
2023-02-03T00:10:08.793Z,18.26
2023-02-03T00:12:36.990Z,18.34
2023-02-03T00:15:05.193Z,18.35
2023-02-03T00:17:32.937Z,17.79
2023-02-03T00:20:00.698Z,18.36
2023-02-03T00:22:28.381Z,18.24
2023-02-03T00:24:56.168Z,18.09
2023-02-03T00:27:23.955Z,18.10
2023-02-03T00:29:51.616Z,18.13
2023-02-03T00:32:19.543Z,18.11
2023-02-03T00:34:47.763Z,18.16
2023-02-03T00:37:15.859Z,17.36
2023-02-03T00:39:43.655Z,18.29
2023-02-03T00:42:11.283Z,18.25
2023-02-03T00:44:38.916Z,17.62
2023-02-03T00:47:07.367Z,18.26
2023-02-03T00:49:35.261Z,18.23
2023-02-03T00:52:03.218Z,17.88
2023-02-03T00:54:32.764Z,18.04
2023-02-03T00:57:01.400Z,18.32
2023-02-03T00:59:29.286Z,17.95
2023-02-03T01:01:57.028Z,18.24
2023-02-03T01:04:25.820Z,18.23
2023-02-03T01:06:57.674Z,18.25
2023-02-03T01:09:26.371Z,17.93
2023-02-03T01:11:55.209Z,18.09
2023-02-03T01:14:23.112Z,17.94
2023-02-03T01:16:50.954Z,18.13
2023-02-03T01:19:18.902Z,18.23
2023-02-03T01:21:46.854Z,17.90
2023-02-03T01:24:15.879Z,18.30
2023-02-03T01:26:44.051Z,18.30
2023-02-03T01:29:11.994Z,17.87
2023-02-03T01:31:42.412Z,18.27
2023-02-03T01:34:16.456Z,17.99
2023-02-03T01:36:46.121Z,18.18
2023-02-03T01:39:14.928Z,18.07
2023-02-03T01:41:45.660Z,17.96
2023-02-03T01:44:44.227Z,18.25
2023-02-03T01:47:18.314Z,18.26
2023-02-03T01:50:04.229Z,18.26
2023-02-03T01:52:34.623Z,18.27
2023-02-03T01:55:07.231Z,18.26
2023-02-03T01:57:58.027Z,18.03
2023-02-03T02:00:27.267Z,17.92
2023-02-03T02:03:01.979Z,18.18
2023-02-03T02:05:43.428Z,18.28
2023-02-03T02:08:15.164Z,18.29
2023-02-03T02:10:42.912Z,17.95
2023-02-03T02:13:12.760Z,17.82
2023-02-03T02:16:08.660Z,18.10
2023-02-03T02:18:46.849Z,18.11
2023-02-03T02:21:20.236Z,18.17
2023-02-03T02:23:57.280Z,18.13
2023-02-03T02:26:40.640Z,18.02
2023-02-03T02:29:34.725Z,18.11
2023-02-03T02:32:07.343Z,18.10
2023-02-03T02:34:49.661Z,18.08
2023-02-03T02:37:39.045Z,18.08
2023-02-03T02:40:13.165Z,17.77
2023-02-03T02:43:03.654Z,18.06
2023-02-03T02:45:46.462Z,17.83
2023-02-03T02:48:27.425Z,18.07
2023-02-03T02:50:59.271Z,18.07
2023-02-03T02:53:32.584Z,18.02
2023-02-03T02:56:03.978Z,17.75
2023-02-03T02:58:34.503Z,17.65
2023-02-03T03:01:04.929Z,17.76
2023-02-03T03:03:32.625Z,18.04
2023-02-03T03:06:05.307Z,18.06
2023-02-03T03:08:57.269Z,18.05
2023-02-03T03:11:28.711Z,17.54
2023-02-03T03:13:59.576Z,17.97
2023-02-03T03:16:33.664Z,18.03
2023-02-03T03:19:12.071Z,17.94
2023-02-03T03:21:48.147Z,18.06
2023-02-03T03:24:22.636Z,17.86
2023-02-03T03:26:56.515Z,17.96
2023-02-03T03:29:36.131Z,18.06
2023-02-03T03:32:04.559Z,17.69
2023-02-03T03:34:33.005Z,17.54
2023-02-03T03:37:16.882Z,17.90
2023-02-03T03:40:00.190Z,17.75
2023-02-03T03:42:43.122Z,18.11
2023-02-03T03:45:15.165Z,18.12
2023-02-03T03:47:49.244Z,18.05
2023-02-03T03:50:23.981Z,17.78
2023-02-03T03:52:53.277Z,17.70
2023-02-03T03:55:21.810Z,17.73
2023-02-03T03:57:59.444Z,18.07
2023-02-03T04:00:31.311Z,17.60
2023-02-03T04:03:05.747Z,17.30
2023-02-03T04:05:34.899Z,18.06
2023-02-03T04:08:03.876Z,17.24
2023-02-03T04:10:41.192Z,18.04
2023-02-03T04:13:09.369Z,17.98
2023-02-03T04:15:37.352Z,17.52
2023-02-03T04:18:05.880Z,17.99
2023-02-03T04:20:34.274Z,18.00
2023-02-03T04:23:02.136Z,17.76
2023-02-03T04:25:29.781Z,17.94
2023-02-03T04:27:57.646Z,17.85
2023-02-03T04:30:25.914Z,17.93
2023-02-03T04:32:54.511Z,17.79
2023-02-03T04:35:23.304Z,17.70
2023-02-03T04:37:51.341Z,17.21
2023-02-03T04:40:19.378Z,17.53
2023-02-03T04:42:47.121Z,17.69
2023-02-03T04:45:14.875Z,17.77
2023-02-03T04:47:42.898Z,17.67
2023-02-03T04:50:10.786Z,17.63
2023-02-03T04:52:38.586Z,17.49
2023-02-03T04:55:06.809Z,17.82
2023-02-03T04:57:34.984Z,17.67
2023-02-03T05:00:02.724Z,17.41
2023-02-03T05:02:30.382Z,17.85
2023-02-03T05:04:58.011Z,17.69
2023-02-03T05:07:25.707Z,17.84
2023-02-03T05:09:53.321Z,17.54
2023-02-03T05:12:20.941Z,17.39
2023-02-03T05:14:48.662Z,17.84
2023-02-03T05:17:16.426Z,17.85
2023-02-03T05:19:44.184Z,17.84
2023-02-03T05:22:12.419Z,17.81
2023-02-03T05:24:40.316Z,17.61
2023-02-03T05:27:08.143Z,17.74
2023-02-03T05:29:36.089Z,17.74
2023-02-03T05:32:04.362Z,17.58
2023-02-03T05:34:32.120Z,17.70
2023-02-03T05:37:00.995Z,17.82
2023-02-03T05:39:28.685Z,17.83
2023-02-03T05:41:58.275Z,17.89
2023-02-03T05:44:28.554Z,17.97
2023-02-03T05:46:59.093Z,17.85
2023-02-03T05:49:27.274Z,17.40
2023-02-03T05:51:56.630Z,18.04
2023-02-03T05:54:24.283Z,18.06
2023-02-03T05:56:52.648Z,17.92
2023-02-03T05:59:20.422Z,18.05
2023-02-03T06:01:48.898Z,17.83
2023-02-03T06:04:16.705Z,18.07
2023-02-03T06:06:44.324Z,18.20
2023-02-03T06:09:11.985Z,18.02
2023-02-03T06:11:39.686Z,17.95
2023-02-03T06:14:07.305Z,18.21
2023-02-03T06:16:35.027Z,18.08
2023-02-03T06:19:02.836Z,17.68
2023-02-03T06:21:31.388Z,17.77
2023-02-03T06:23:59.216Z,18.29
2023-02-03T06:26:27.072Z,18.27
2023-02-03T06:28:54.978Z,18.19
2023-02-03T06:31:23.439Z,18.14
2023-02-03T06:33:51.192Z,18.32
2023-02-03T06:36:18.998Z,17.72
2023-02-03T06:38:46.766Z,18.02
2023-02-03T06:41:14.563Z,18.24
2023-02-03T06:43:42.180Z,17.80
2023-02-03T06:46:10.116Z,17.88
2023-02-03T06:48:37.805Z,18.26
2023-02-03T06:51:06.569Z,17.91
2023-02-03T06:53:34.379Z,18.27
2023-02-03T06:56:03.499Z,18.13
2023-02-03T06:58:31.480Z,18.23
2023-02-03T07:00:59.289Z,18.08
2023-02-03T07:03:27.078Z,17.95
2023-02-03T07:05:54.806Z,18.29
2023-02-03T07:08:22.409Z,18.23
2023-02-03T07:10:56.506Z,18.26
2023-02-03T07:13:24.248Z,18.26
2023-02-03T07:15:51.982Z,18.24
2023-02-03T07:18:45.750Z,18.22
2023-02-03T07:21:14.199Z,18.12
2023-02-03T07:23:42.108Z,18.14
2023-02-03T07:26:11.028Z,18.16
2023-02-03T07:28:38.652Z,17.88
2023-02-03T07:31:08.344Z,17.92
2023-02-03T07:33:37.135Z,18.12
2023-02-03T07:36:05.381Z,18.02
2023-02-03T07:38:33.411Z,17.74
2023-02-03T07:41:01.073Z,18.13
2023-02-03T07:43:28.819Z,18.12
2023-02-03T07:45:56.982Z,17.85
2023-02-03T07:48:25.369Z,17.79
2023-02-03T07:50:53.087Z,17.79
2023-02-03T07:53:21.156Z,17.72
2023-02-03T07:55:49.627Z,18.09
2023-02-03T07:58:17.388Z,18.00
2023-02-03T08:00:45.336Z,18.22
2023-02-03T08:03:13.149Z,18.22
2023-02-03T08:05:40.806Z,17.98
2023-02-03T08:08:08.755Z,18.18
2023-02-03T08:10:36.708Z,17.78
2023-02-03T08:13:04.397Z,18.01
2023-02-03T08:15:32.401Z,18.03
2023-02-03T08:18:00.611Z,17.86
2023-02-03T08:20:28.523Z,18.30
2023-02-03T08:22:56.543Z,18.03
2023-02-03T08:25:24.336Z,18.11
2023-02-03T08:27:53.984Z,18.28
2023-02-03T08:30:23.175Z,18.01
2023-02-03T08:32:50.921Z,18.31
2023-02-03T08:35:19.325Z,18.34
2023-02-03T08:37:47.323Z,18.36
2023-02-03T08:40:15.874Z,18.40
2023-02-03T08:42:44.047Z,18.36
2023-02-03T08:45:12.158Z,18.50
2023-02-03T08:47:40.359Z,18.11
2023-02-03T08:50:09.419Z,18.40
2023-02-03T08:52:37.488Z,17.93
2023-02-03T08:55:06.168Z,18.66
2023-02-03T08:57:37.931Z,18.82
2023-02-03T09:00:06.823Z,18.48
2023-02-03T09:02:34.822Z,18.45
2023-02-03T09:05:03.041Z,18.88
2023-02-03T09:07:30.882Z,18.62
2023-02-03T09:09:58.489Z,18.75
2023-02-03T09:12:26.188Z,19.04
2023-02-03T09:14:54.226Z,19.04
2023-02-03T09:17:22.025Z,18.86
2023-02-03T09:19:49.829Z,18.96
2023-02-03T09:22:17.698Z,19.05
2023-02-03T09:24:45.752Z,18.86
2023-02-03T09:27:13.511Z,18.63
2023-02-03T09:29:41.374Z,19.04
2023-02-03T09:32:11.113Z,18.69
2023-02-03T09:34:41.420Z,18.73
2023-02-03T09:37:09.363Z,19.17
2023-02-03T09:39:37.435Z,19.27
2023-02-03T09:42:14.250Z,19.27
2023-02-03T09:44:46.826Z,19.13
2023-02-03T09:47:23.040Z,18.89
2023-02-03T09:49:58.503Z,19.07
2023-02-03T09:52:32.967Z,19.33
2023-02-03T09:55:31.905Z,19.31
2023-02-03T09:58:14.369Z,19.33
2023-02-03T10:00:44.891Z,19.37
2023-02-03T10:03:28.007Z,19.41
2023-02-03T10:06:20.559Z,19.52
2023-02-03T10:09:00.037Z,19.52
2023-02-03T10:11:41.216Z,19.53
2023-02-03T10:14:30.588Z,19.54
2023-02-03T10:17:32.311Z,19.55
2023-02-03T10:20:07.404Z,19.53
2023-02-03T10:22:42.248Z,19.43
2023-02-03T10:25:44.612Z,19.51
2023-02-03T10:28:19.844Z,19.04
2023-02-03T10:30:52.374Z,19.07
2023-02-03T10:33:22.339Z,19.36
2023-02-03T10:36:02.422Z,19.44
2023-02-03T10:38:50.282Z,19.40
2023-02-03T10:41:20.778Z,19.37
2023-02-03T10:43:53.821Z,19.23
2023-02-03T10:46:29.875Z,18.93
2023-02-03T10:48:57.768Z,19.14
2023-02-03T10:51:26.833Z,19.29
2023-02-03T10:53:58.410Z,18.84
2023-02-03T10:56:30.205Z,19.24
2023-02-03T10:59:00.915Z,19.16
2023-02-03T11:01:50.377Z,19.26
2023-02-03T11:04:27.809Z,19.17
2023-02-03T11:07:08.415Z,19.25
2023-02-03T11:09:42.240Z,18.84
2023-02-03T11:12:23.637Z,19.27
2023-02-03T11:14:53.755Z,19.26
2023-02-03T11:17:27.601Z,19.00
2023-02-03T11:20:20.411Z,18.90
2023-02-03T11:22:48.887Z,19.26
2023-02-03T11:25:20.929Z,19.11
2023-02-03T11:27:49.010Z,19.30
2023-02-03T11:30:30.561Z,18.92
2023-02-03T11:33:02.278Z,19.01
2023-02-03T11:35:31.985Z,19.13
2023-02-03T11:38:01.943Z,19.43
2023-02-03T11:40:34.551Z,19.43
2023-02-03T11:43:17.300Z,19.43
2023-02-03T11:45:49.490Z,19.26
2023-02-03T11:48:37.914Z,19.34
2023-02-03T11:51:26.709Z,19.57
2023-02-03T11:54:11.720Z,19.63
2023-02-03T11:57:20.168Z,19.58
2023-02-03T12:00:00.147Z,19.59
2023-02-03T12:02:40.062Z,19.57
2023-02-03T12:05:26.635Z,19.55
2023-02-03T12:08:19.038Z,19.58
2023-02-03T12:11:04.891Z,19.40
2023-02-03T12:13:56.394Z,19.54
2023-02-03T12:17:07.607Z,19.47
2023-02-03T12:19:53.887Z,19.62
2023-02-03T12:22:45.292Z,19.50
2023-02-03T12:25:35.052Z,19.80
2023-02-03T12:28:33.561Z,19.56
2023-02-03T12:31:14.847Z,19.88
2023-02-03T12:33:53.980Z,19.66
2023-02-03T12:36:28.870Z,19.48
2023-02-03T12:39:04.121Z,19.91
2023-02-03T12:41:40.993Z,19.97
2023-02-03T12:44:32.501Z,19.64
2023-02-03T12:47:22.983Z,19.93
2023-02-03T12:49:55.495Z,19.73
2023-02-03T12:52:29.528Z,19.98
2023-02-03T12:55:15.239Z,19.94
2023-02-03T12:57:48.923Z,20.01
2023-02-03T13:00:48.816Z,19.34
2023-02-03T13:03:41.429Z,20.06
2023-02-03T13:06:24.868Z,20.11
2023-02-03T13:09:24.545Z,19.90
2023-02-03T13:12:22.610Z,20.16
2023-02-03T13:14:55.880Z,19.79
2023-02-03T13:17:42.166Z,20.08
2023-02-03T13:20:27.297Z,19.84
2023-02-03T13:22:55.365Z,20.19
2023-02-03T13:25:35.388Z,20.20
2023-02-03T13:28:32.283Z,20.07
2023-02-03T13:31:13.830Z,20.18
2023-02-03T13:34:07.442Z,20.16
2023-02-03T13:36:51.171Z,20.16
2023-02-03T13:39:43.938Z,20.16
2023-02-03T13:42:22.165Z,20.10
2023-02-03T13:44:59.616Z,20.02
2023-02-03T13:47:32.745Z,19.82
2023-02-03T13:50:16.832Z,20.03
2023-02-03T13:52:56.294Z,20.01
2023-02-03T13:55:33.519Z,19.88
2023-02-03T13:58:01.924Z,19.88
2023-02-03T14:00:45.420Z,19.90
2023-02-03T14:03:39.979Z,19.93
2023-02-03T14:06:55.729Z,19.62
2023-02-03T14:09:35.535Z,19.89
2023-02-03T14:12:15.605Z,19.87
2023-02-03T14:14:55.559Z,19.75
2023-02-03T14:17:35.722Z,19.85
2023-02-03T14:20:24.608Z,19.43
2023-02-03T14:23:21.397Z,19.56
2023-02-03T14:25:55.564Z,19.74
2023-02-03T14:28:42.986Z,19.83
2023-02-03T14:31:25.384Z,19.46
2023-02-03T14:33:57.802Z,19.82
2023-02-03T14:36:35.234Z,19.81
2023-02-03T14:39:22.640Z,19.76
2023-02-03T14:42:02.743Z,19.78
2023-02-03T14:44:36.441Z,19.75
2023-02-03T14:47:26.109Z,19.75
2023-02-03T14:50:15.631Z,19.74
2023-02-03T14:53:02.171Z,19.72
2023-02-03T14:55:39.773Z,19.72
2023-02-03T14:58:23.092Z,19.72
2023-02-03T15:00:54.737Z,19.62
2023-02-03T15:03:30.455Z,19.15
2023-02-03T15:06:05.099Z,19.79
2023-02-03T15:08:44.551Z,19.32
2023-02-03T15:11:46.998Z,19.62
2023-02-03T15:14:31.596Z,19.36
2023-02-03T15:17:02.551Z,19.71
2023-02-03T15:19:41.007Z,19.44
2023-02-03T15:22:27.529Z,19.73
2023-02-03T15:25:19.752Z,19.28
2023-02-03T15:27:48.181Z,19.41
2023-02-03T15:30:27.777Z,19.70
2023-02-03T15:33:04.551Z,19.55
2023-02-03T15:35:34.584Z,19.70
2023-02-03T15:38:28.009Z,19.20
2023-02-03T15:40:59.072Z,19.55
2023-02-03T15:43:39.564Z,19.36
2023-02-03T15:46:27.085Z,19.61
2023-02-03T15:49:00.256Z,19.61
2023-02-03T15:51:36.613Z,19.36
2023-02-03T15:54:30.774Z,19.49
2023-02-03T15:56:58.611Z,19.61
2023-02-03T15:59:30.671Z,19.61
2023-02-03T16:02:01.156Z,19.59
2023-02-03T16:04:31.250Z,19.58
2023-02-03T16:06:59.646Z,19.35
2023-02-03T16:09:39.756Z,19.60
2023-02-03T16:12:24.561Z,19.63
2023-02-03T16:14:54.137Z,19.64
2023-02-03T16:17:31.822Z,19.67
2023-02-03T16:20:11.702Z,19.70
2023-02-03T16:22:46.379Z,19.72
2023-02-03T16:25:24.134Z,19.61
2023-02-03T16:28:18.451Z,19.49
2023-02-03T16:31:38.792Z,19.73
2023-02-03T16:34:36.167Z,19.09
2023-02-03T16:37:52.294Z,19.74
2023-02-03T16:40:42.702Z,19.39
2023-02-03T16:43:34.487Z,19.66
2023-02-03T16:46:20.839Z,18.80
2023-02-03T16:49:07.392Z,18.92
2023-02-03T16:51:40.224Z,19.63
2023-02-03T16:54:14.424Z,19.42
2023-02-03T16:56:42.222Z,19.63
2023-02-03T16:59:11.092Z,19.36
2023-02-03T17:01:40.731Z,19.58
2023-02-03T17:04:13.731Z,19.59
2023-02-03T17:06:41.628Z,19.56
2023-02-03T17:09:09.356Z,19.26
2023-02-03T17:11:37.189Z,19.53
2023-02-03T17:14:05.074Z,19.00
2023-02-03T17:16:34.185Z,19.11
2023-02-03T17:19:03.227Z,18.99
2023-02-03T17:21:31.553Z,19.24
2023-02-03T17:24:00.251Z,19.41
2023-02-03T17:26:28.273Z,19.25
2023-02-03T17:28:56.093Z,19.58
2023-02-03T17:31:23.974Z,19.56
2023-02-03T17:33:53.330Z,19.54
2023-02-03T17:36:22.125Z,19.59
2023-02-03T17:55:22.495Z,19.52
2023-02-03T17:57:50.247Z,19.43
2023-02-03T18:00:18.377Z,19.53
2023-02-03T18:02:50.945Z,19.51
2023-02-03T18:05:19.322Z,19.04
2023-02-03T18:10:19.921Z,19.37
2023-02-03T18:12:47.700Z,19.41
2023-02-03T18:15:16.856Z,19.29
2023-02-03T18:17:44.595Z,19.28
2023-02-03T18:20:13.846Z,19.49
2023-02-03T18:22:41.745Z,19.31
2023-02-03T18:25:10.184Z,19.45
2023-02-03T18:27:38.426Z,19.35
2023-02-03T18:30:06.850Z,19.33
2023-02-03T18:32:35.060Z,19.54
2023-02-03T18:35:03.839Z,19.48
2023-02-03T18:37:31.721Z,19.57
2023-02-03T18:40:00.945Z,19.43
2023-02-03T18:42:28.942Z,19.31
2023-02-03T18:44:56.588Z,19.61
2023-02-03T18:47:24.474Z,19.21
2023-02-03T18:49:52.199Z,19.60
2023-02-03T18:52:20.221Z,19.39
2023-02-03T18:54:49.994Z,19.60
2023-02-03T18:57:17.956Z,19.39
2023-02-03T18:59:46.033Z,19.21
2023-02-03T19:02:13.796Z,18.86
2023-02-03T19:04:43.581Z,19.61
2023-02-03T19:07:13.315Z,19.40
2023-02-03T19:09:41.345Z,19.40
2023-02-03T19:12:09.946Z,19.56
2023-02-03T19:14:37.810Z,19.50
2023-02-03T19:17:05.568Z,19.48
2023-02-03T19:19:34.194Z,19.13
2023-02-03T19:22:02.070Z,19.76
2023-02-03T19:24:31.025Z,19.09
2023-02-03T19:26:58.728Z,19.68
2023-02-03T19:29:26.652Z,19.68
2023-02-03T19:31:54.493Z,18.95
2023-02-03T19:34:22.730Z,20.03
2023-02-03T19:36:52.045Z,19.97
2023-02-03T19:39:21.755Z,20.12
2023-02-03T19:41:49.628Z,20.16
2023-02-03T19:44:18.957Z,19.91
2023-02-03T19:46:46.736Z,20.01
2023-02-03T19:49:15.323Z,19.97
2023-02-03T19:51:44.068Z,19.39
2023-02-03T19:54:15.270Z,19.16
2023-02-03T19:56:44.686Z,20.15
2023-02-03T19:59:14.041Z,20.15
2023-02-03T20:01:42.836Z,19.84
2023-02-03T20:04:11.656Z,20.12
2023-02-03T20:06:39.636Z,19.71
2023-02-03T20:09:07.571Z,19.22
2023-02-03T20:11:37.391Z,20.11
2023-02-03T20:14:05.549Z,19.86
2023-02-03T20:16:33.361Z,19.95
2023-02-03T20:19:01.421Z,19.68
2023-02-03T20:21:29.502Z,19.62
2023-02-03T20:23:57.261Z,19.69
2023-02-03T20:26:25.050Z,19.42
2023-02-03T20:28:52.970Z,19.51
2023-02-03T20:31:21.801Z,19.22
2023-02-03T20:33:49.671Z,19.56
2023-02-03T20:36:18.265Z,18.81
2023-02-03T20:38:46.537Z,19.06
2023-02-03T20:41:18.284Z,19.58
2023-02-03T20:43:46.157Z,19.42
2023-02-03T20:46:17.739Z,19.55
2023-02-03T20:48:46.432Z,18.85
2023-02-03T20:51:16.553Z,18.62
2023-02-03T20:53:44.795Z,19.52
2023-02-03T20:56:18.414Z,18.96
2023-02-03T20:58:46.349Z,19.52
2023-02-03T21:01:19.207Z,19.58
2023-02-03T21:04:06.616Z,19.59
2023-02-03T21:06:34.914Z,19.54
2023-02-03T21:09:18.233Z,19.53
2023-02-03T21:11:46.259Z,18.88
2023-02-03T21:14:22.083Z,19.49
2023-02-03T21:16:50.886Z,19.31
2023-02-03T21:19:30.198Z,19.50
2023-02-03T21:21:58.449Z,19.48
2023-02-03T21:24:33.642Z,19.52
2023-02-03T21:27:02.716Z,19.43
2023-02-03T21:29:36.965Z,19.44
2023-02-03T21:32:13.532Z,19.64
2023-02-03T21:34:43.976Z,19.26
2023-02-03T21:37:20.811Z,19.60
2023-02-03T21:39:49.316Z,19.34
2023-02-03T21:42:43.515Z,19.56
2023-02-03T21:45:14.592Z,19.55
2023-02-03T21:47:46.975Z,19.29
2023-02-03T21:50:31.297Z,19.46
2023-02-03T21:53:16.340Z,19.21
2023-02-03T21:55:44.373Z,19.25
2023-02-03T21:58:12.103Z,19.33
2023-02-03T22:00:47.585Z,19.05
2023-02-03T22:03:27.294Z,18.60
2023-02-03T22:06:19.401Z,19.06
2023-02-03T22:08:49.943Z,19.27
2023-02-03T22:11:20.159Z,19.26
2023-02-03T22:13:48.169Z,19.27
2023-02-03T22:16:19.641Z,19.09
2023-02-03T22:18:49.010Z,19.10
2023-02-03T22:21:17.655Z,18.84
2023-02-03T22:23:45.684Z,19.14
2023-02-03T22:26:14.685Z,18.66
2023-02-03T22:28:43.428Z,19.24
2023-02-03T22:31:13.204Z,18.96
2023-02-03T22:33:42.163Z,19.19
2023-02-03T22:36:11.009Z,19.08
2023-02-03T22:38:41.495Z,19.04
2023-02-03T22:41:14.260Z,18.93
2023-02-03T22:43:42.062Z,19.09
2023-02-03T22:46:10.158Z,18.96
2023-02-03T22:48:38.973Z,19.04
2023-02-03T22:51:07.071Z,18.96
2023-02-03T22:53:35.089Z,19.10
2023-02-03T22:56:03.416Z,18.95
2023-02-03T22:58:31.298Z,19.16
2023-02-03T23:00:59.427Z,18.88
2023-02-03T23:03:28.188Z,18.59
2023-02-03T23:05:58.427Z,18.92
2023-02-03T23:08:26.093Z,19.14
2023-02-03T23:10:53.950Z,19.10
2023-02-03T23:13:22.303Z,18.96
2023-02-03T23:15:50.210Z,18.57
2023-02-03T23:18:18.311Z,18.82
2023-02-03T23:20:46.228Z,18.11
2023-02-03T23:23:14.462Z,18.69
2023-02-03T23:25:42.512Z,18.75
2023-02-03T23:28:10.591Z,18.84
2023-02-03T23:30:38.359Z,18.65
2023-02-03T23:33:06.229Z,18.96
2023-02-03T23:35:46.075Z,18.75
2023-02-03T23:38:15.376Z,19.05
2023-02-03T23:40:43.658Z,18.94
2023-02-03T23:43:11.416Z,18.83
2023-02-03T23:45:39.375Z,19.03
2023-02-03T23:48:07.823Z,19.03
2023-02-03T23:50:35.762Z,18.83
2023-02-03T23:53:03.368Z,18.86
2023-02-03T23:55:31.548Z,19.04
2023-02-03T23:57:59.496Z,18.70
